| time (UTC) | temp F | wind direction | speed MPH | gust MPH | rain 1hr in | rain 24hr in | rain mn in | humidity % | barometer mb |
| 20260503211505 | 56 | 169 | 1.0 | 10.0 | 0.00 | 0.17 | 0.00 | 65 | 1018.3 |
| 20260503210005 | 56 | 46 | 1.0 | 6.0 | 0.00 | 0.17 | 0.00 | 66 | 1018.2 |
| 20260503204503 | 56 | 97 | 1.0 | 7.0 | 0.00 | 0.20 | 0.00 | 65 | 1018.2 |
| 20260503203009 | 57 | 89 | 2.0 | 9.0 | 0.00 | 0.20 | 0.00 | 65 | 1018.1 |
| 20260503201501 | 57 | 76 | 1.0 | 7.0 | 0.00 | 0.20 | 0.00 | 65 | 1018.0 |
| 20260503200001 | 57 | 50 | 1.0 | 12.0 | 0.00 | 0.20 | 0.00 | 65 | 1018.0 |
| 20260503194610 | 57 | 103 | 2.0 | 12.0 | 0.00 | 0.22 | 0.00 | 65 | 1018.1 |
| 20260503193118 | 58 | 68 | 3.0 | 9.0 | 0.00 | 0.22 | 0.00 | 64 | 1018.2 |
| 20260503191618 | 58 | 92 | 2.0 | 11.0 | 0.00 | 0.22 | 0.00 | 63 | 1018.5 |
| 20260503184607 | 59 | 345 | 4.0 | 11.0 | 0.00 | 0.23 | 0.00 | 56 | 1018.8 |
| 20260503183056 | 61 | 338 | 1.0 | 6.0 | 0.00 | 0.23 | 0.00 | 57 | 1018.8 |
| 20260503181555 | 60 | 39 | 1.0 | 10.0 | 0.00 | 0.23 | 0.00 | 57 | 1018.8 |
| 20260503180059 | 60 | 307 | 1.0 | 9.0 | 0.00 | 0.23 | 0.00 | 57 | 1018.8 |
| 20260503174554 | 60 | 70 | 1.0 | 12.0 | 0.00 | 0.25 | 0.00 | 57 | 1018.9 |
| 20260503173051 | 59 | 19 | 2.0 | 12.0 | 0.00 | 0.25 | 0.00 | 57 | 1019.1 |
| 20260503171550 | 59 | 319 | 2.0 | 12.0 | 0.00 | 0.25 | 0.00 | 58 | 1019.0 |
| 20260503170103 | 60 | 355 | 1.0 | 9.0 | 0.00 | 0.25 | 0.00 | 56 | 1019.0 |
| 20260503100106 | 54 | 342 | 2.0 | 11.0 | 0.00 | 0.42 | 0.00 | 72 | 1015.4 |
| 20260503081543 | 54 | 346 | 1.0 | 12.0 | 0.00 | 0.44 | 0.00 | 73 | 1014.2 |
| 20260503071533 | 55 | 321 | 3.0 | 13.0 | 0.00 | 0.44 | 0.00 | 72 | 1013.5 |
| 20260503054700 | 54 | 33 | 3.0 | 16.0 | 0.00 | 0.45 | 0.00 | 72 | 1012.4 |
| 20260503053057 | 54 | 360 | 3.0 | 13.0 | 0.00 | 0.45 | 0.00 | 71 | 1012.3 |
| 20260503051555 | 53 | 328 | 3.0 | 14.0 | 0.00 | 0.45 | 0.00 | 70 | 1012.7 |
| 20260503050052 | 54 | 346 | 3.0 | 14.0 | 0.00 | 0.45 | 0.00 | 70 | 1012.8 |
| 20260503044551 | 54 | 32 | 5.0 | 14.0 | 0.00 | 0.45 | 0.00 | 73 | 1012.6 |
| 20260503043054 | 54 | 345 | 4.0 | 18.0 | 0.00 | 0.45 | 0.00 | 74 | 1012.6 |
| 20260503041544 | 54 | 341 | 4.0 | 15.0 | 0.00 | 0.45 | 0.00 | 76 | 1012.5 |
| 20260503040040 | 54 | 63 | 2.0 | 17.0 | 0.00 | 0.45 | 0.00 | 79 | 1012.4 |
| 20260503034545 | 54 | 15 | 3.0 | 14.0 | 0.00 | 0.45 | 0.45 | 81 | 1012.2 |
| 20260503033139 | 53 | 28 | 4.0 | 16.0 | 0.01 | 0.45 | 0.45 | 81 | 1012.2 |
| 20260503031538 | 53 | 72 | 4.0 | 18.0 | 0.01 | 0.45 | 0.45 | 81 | 1012.0 |
| 20260503030037 | 52 | 78 | 3.0 | 19.0 | 0.01 | 0.45 | 0.45 | 83 | 1011.9 |
| 20260503024538 | 52 | 26 | 6.0 | 16.0 | 0.01 | 0.45 | 0.45 | 85 | 1011.8 |
| 20260503023037 | 52 | 344 | 5.0 | 16.0 | 0.00 | 0.44 | 0.44 | 86 | 1012.0 |
| 20260503021532 | 52 | 119 | 2.0 | 18.0 | 0.01 | 0.44 | 0.44 | 88 | 1012.0 |
| 20260503020032 | 51 | 5 | 4.0 | 17.0 | 0.01 | 0.44 | 0.44 | 89 | 1012.4 |
| 20260503014529 | 51 | 80 | 4.0 | 13.0 | 0.02 | 0.44 | 0.44 | 89 | 1012.3 |
| 20260503013037 | 50 | 9 | 4.0 | 13.0 | 0.03 | 0.44 | 0.44 | 90 | 1012.4 |
| 20260503011526 | 51 | 360 | 5.0 | 13.0 | 0.03 | 0.43 | 0.43 | 90 | 1011.5 |
| 20260503010025 | 51 | 314 | 4.0 | 15.0 | 0.04 | 0.43 | 0.43 | 90 | 1011.7 |
| 20260503004533 | 50 | 51 | 3.0 | 16.0 | 0.03 | 0.42 | 0.42 | 90 | 1011.7 |
| 20260503003023 | 51 | 338 | 3.0 | 18.0 | 0.04 | 0.41 | 0.41 | 90 | 1010.8 |
| 20260503001519 | 51 | 5 | 5.0 | 19.0 | 0.04 | 0.40 | 0.40 | 90 | 1011.4 |
| 20260503000017 | 51 | 15 | 3.0 | 16.0 | 0.04 | 0.39 | 0.39 | 90 | 1011.6 |
| 20260502234515 | 52 | 23 | 5.0 | 23.0 | 0.05 | 0.39 | 0.39 | 90 | 1011.4 |
| 20260502233027 | 52 | 360 | 3.0 | 17.0 | 0.04 | 0.37 | 0.37 | 90 | 1011.1 |
| 20260502231509 | 53 | 348 | 3.0 | 13.0 | 0.03 | 0.36 | 0.36 | 90 | 1011.0 |
| 20260502230007 | 53 | 5 | 2.0 | 15.0 | 0.03 | 0.35 | 0.35 | 90 | 1010.3 |
| 20260502224506 | 53 | 26 | 0.0 | 9.0 | 0.03 | 0.34 | 0.34 | 90 | 1010.3 |
| 20260502223004 | 53 | 13 | 2.0 | 10.0 | 0.03 | 0.33 | 0.33 | 90 | 1010.3 |
| 20260502221501 | 53 | 51 | 3.0 | 11.0 | 0.04 | 0.33 | 0.33 | 90 | 1010.3 |
| 20260502220100 | 53 | 69 | 4.0 | 14.0 | 0.04 | 0.32 | 0.32 | 90 | 1010.4 |
| 20260502214600 | 53 | 83 | 3.0 | 14.0 | 0.04 | 0.31 | 0.31 | 90 | 1010.4 |
| 20260502213056 | 53 | 38 | 3.0 | 10.0 | 0.04 | 0.30 | 0.30 | 90 | 1010.4 |